createdAt,value
2024-02-29T00:00:21.226Z,42.60
2024-02-29T00:00:55.059Z,42.67
2024-02-29T00:01:27.001Z,42.03
2024-02-29T00:01:59.079Z,42.17
2024-02-29T00:02:30.908Z,41.50
2024-02-29T00:03:03.651Z,41.10
2024-02-29T00:03:35.635Z,43.20
2024-02-29T00:04:07.805Z,41.37
2024-02-29T00:04:39.606Z,42.97
2024-02-29T00:05:13.441Z,41.63
2024-02-29T00:05:45.920Z,42.40
2024-02-29T00:06:17.713Z,43.87
2024-02-29T00:06:49.545Z,42.60
2024-02-29T00:07:22.597Z,42.67
2024-02-29T00:07:54.586Z,44.80
2024-02-29T00:08:28.064Z,44.90
2024-02-29T00:09:00.027Z,44.20
2024-02-29T00:09:32.044Z,41.80
2024-02-29T00:10:04.134Z,43.03
2024-02-29T00:10:36.375Z,43.43
2024-02-29T00:11:08.183Z,43.37
2024-02-29T00:11:40.049Z,42.73
2024-02-29T00:12:11.834Z,43.17
2024-02-29T00:12:43.925Z,44.27
2024-02-29T00:13:15.777Z,42.40
2024-02-29T00:13:47.639Z,42.43
2024-02-29T00:14:20.125Z,43.60
2024-02-29T00:14:52.907Z,44.23
2024-02-29T00:15:24.686Z,44.10
2024-02-29T00:15:56.531Z,43.67
2024-02-29T00:16:28.363Z,43.43
2024-02-29T00:17:02.056Z,42.27
2024-02-29T00:17:34.161Z,41.13
2024-02-29T00:18:06.217Z,41.60
2024-02-29T00:18:38.131Z,41.43
2024-02-29T00:19:10.289Z,41.93
2024-02-29T00:19:42.164Z,42.43
2024-02-29T00:20:13.912Z,43.20
2024-02-29T00:20:45.736Z,43.40
2024-02-29T00:21:17.580Z,41.93
2024-02-29T00:21:49.450Z,42.10
2024-02-29T00:22:21.322Z,42.03
2024-02-29T00:22:53.255Z,40.63
2024-02-29T00:23:25.103Z,39.37
2024-02-29T00:23:56.932Z,40.80
2024-02-29T00:24:28.831Z,39.93
2024-02-29T00:25:00.844Z,39.53
2024-02-29T00:25:32.741Z,39.73
2024-02-29T00:26:04.816Z,41.87
2024-02-29T00:26:36.661Z,41.73
2024-02-29T00:27:08.646Z,40.07
2024-02-29T00:27:40.704Z,40.63
2024-02-29T00:28:12.884Z,40.63
2024-02-29T00:28:44.868Z,39.63
2024-02-29T00:29:16.769Z,40.27
2024-02-29T00:29:48.590Z,40.23
2024-02-29T00:30:20.748Z,39.80
2024-02-29T00:30:52.729Z,39.50
2024-02-29T00:31:25.703Z,39.37
2024-02-29T00:32:01.861Z,39.93
2024-02-29T00:32:35.029Z,39.23
2024-02-29T00:33:07.178Z,39.53
2024-02-29T00:33:40.873Z,40.77
2024-02-29T00:34:13.480Z,40.83
2024-02-29T00:34:45.337Z,39.57
2024-02-29T00:35:17.117Z,40.33
2024-02-29T00:35:49.795Z,41.43
2024-02-29T00:36:24.244Z,41.37
2024-02-29T00:36:56.554Z,40.57
2024-02-29T00:37:29.762Z,39.63
2024-02-29T00:38:01.657Z,40.43
2024-02-29T00:38:33.426Z,40.40
2024-02-29T00:39:11.790Z,39.67
2024-02-29T00:39:46.795Z,40.77
2024-02-29T00:40:18.664Z,41.83
2024-02-29T00:40:50.532Z,41.87
2024-02-29T00:41:22.552Z,40.57
2024-02-29T00:41:54.342Z,40.07
2024-02-29T00:42:26.165Z,40.70
2024-02-29T00:42:58.491Z,41.07
2024-02-29T00:43:30.313Z,39.83
2024-02-29T00:44:02.154Z,40.80
2024-02-29T00:44:34.239Z,41.80
2024-02-29T00:45:06.462Z,40.57
2024-02-29T00:45:38.301Z,39.97
2024-02-29T00:46:10.271Z,41.40
2024-02-29T00:46:42.252Z,40.90
2024-02-29T00:47:14.050Z,41.73
2024-02-29T00:47:45.917Z,43.07
2024-02-29T00:48:17.848Z,41.97
2024-02-29T00:48:49.671Z,42.50
2024-02-29T00:49:21.795Z,41.87
2024-02-29T00:49:53.585Z,42.87
2024-02-29T00:50:25.710Z,42.40
2024-02-29T00:50:57.561Z,41.03
2024-02-29T00:51:29.537Z,41.03
2024-02-29T00:52:01.438Z,40.33
2024-02-29T00:52:33.246Z,39.77
2024-02-29T00:53:05.100Z,41.50
2024-02-29T00:53:36.937Z,41.60
2024-02-29T00:54:09.577Z,41.47
2024-02-29T00:54:41.795Z,42.17
2024-02-29T00:55:14.346Z,41.53
2024-02-29T00:55:46.162Z,42.37
2024-02-29T00:56:18.077Z,42.30
2024-02-29T00:56:49.932Z,43.13
2024-02-29T00:57:21.737Z,41.83
2024-02-29T00:57:53.518Z,42.17
2024-02-29T00:58:25.359Z,42.67
2024-02-29T00:58:57.127Z,40.90
2024-02-29T00:59:28.912Z,41.77
2024-02-29T01:00:00.746Z,42.53
2024-02-29T01:00:32.794Z,43.13
2024-02-29T01:01:04.962Z,43.37
2024-02-29T01:01:36.910Z,41.97
2024-02-29T01:02:08.795Z,42.23
2024-02-29T01:02:40.606Z,42.13
2024-02-29T01:03:12.510Z,43.40
2024-02-29T01:03:44.345Z,43.27
2024-02-29T01:04:16.208Z,41.90
2024-02-29T01:04:48.039Z,42.07
2024-02-29T01:05:19.945Z,42.20
2024-02-29T01:05:52.001Z,44.47
2024-02-29T01:06:23.823Z,43.57
2024-02-29T01:06:57.260Z,43.07
2024-02-29T01:07:29.206Z,43.27
2024-02-29T01:08:01.006Z,42.90
2024-02-29T01:08:32.923Z,43.60
2024-02-29T01:09:05.518Z,43.80
2024-02-29T01:09:37.427Z,43.93
2024-02-29T01:10:12.910Z,43.53
2024-02-29T01:10:44.839Z,42.83
2024-02-29T01:11:18.038Z,43.03
2024-02-29T01:11:49.982Z,43.53
2024-02-29T01:12:21.933Z,42.93
2024-02-29T01:12:53.785Z,43.40
2024-02-29T01:13:25.566Z,43.17
2024-02-29T01:13:57.340Z,44.17
2024-02-29T01:14:29.178Z,42.90
2024-02-29T01:15:01.002Z,45.03
2024-02-29T01:15:32.817Z,42.03
2024-02-29T01:16:04.943Z,41.43
2024-02-29T01:16:36.793Z,42.47
2024-02-29T01:17:08.577Z,43.13
2024-02-29T01:17:44.769Z,42.90
2024-02-29T01:18:16.806Z,42.10
2024-02-29T01:18:48.706Z,43.83
2024-02-29T01:19:20.698Z,44.67
2024-02-29T01:19:52.485Z,44.40
2024-02-29T01:20:24.249Z,43.63
2024-02-29T01:20:56.057Z,43.03
2024-02-29T01:21:27.919Z,43.63
2024-02-29T01:22:00.320Z,45.20
2024-02-29T01:22:32.357Z,43.43
2024-02-29T01:23:04.212Z,44.03
2024-02-29T01:23:35.986Z,43.73
2024-02-29T01:24:07.811Z,43.90
2024-02-29T01:24:39.765Z,43.50
2024-02-29T01:25:12.810Z,42.43
2024-02-29T01:25:44.773Z,43.60
2024-02-29T01:26:16.550Z,42.57
2024-02-29T01:26:48.355Z,43.93
2024-02-29T01:27:20.435Z,42.57
2024-02-29T01:27:52.519Z,42.87
2024-02-29T01:28:24.338Z,42.50
2024-02-29T01:28:57.229Z,42.70
2024-02-29T01:29:29.221Z,43.23
2024-02-29T01:30:01.055Z,42.77
2024-02-29T01:30:32.895Z,43.33
2024-02-29T01:31:05.162Z,42.10
2024-02-29T01:31:37.140Z,41.80
2024-02-29T01:32:18.542Z,43.30
2024-02-29T01:32:54.603Z,41.93
2024-02-29T01:33:26.427Z,43.10
2024-02-29T01:33:58.283Z,43.23
2024-02-29T01:34:30.079Z,43.17
2024-02-29T01:35:04.235Z,42.53
2024-02-29T01:35:36.076Z,43.90
2024-02-29T01:36:07.924Z,44.20
2024-02-29T01:36:39.833Z,42.30
2024-02-29T01:37:11.995Z,43.97
2024-02-29T01:37:43.847Z,44.50
2024-02-29T01:38:15.658Z,44.67
2024-02-29T01:38:47.459Z,43.47
2024-02-29T01:39:19.320Z,44.63
2024-02-29T01:39:51.126Z,43.67
2024-02-29T01:40:23.328Z,43.87
2024-02-29T01:40:55.118Z,43.90
2024-02-29T01:41:27.045Z,43.47
2024-02-29T01:41:58.895Z,44.20
2024-02-29T01:42:30.947Z,44.20
2024-02-29T01:43:03.940Z,44.00
2024-02-29T01:43:36.095Z,43.00
2024-02-29T01:44:07.877Z,42.33
2024-02-29T01:44:53.859Z,42.50
2024-02-29T01:45:25.694Z,44.90
2024-02-29T01:46:15.353Z,44.83
2024-02-29T01:46:47.211Z,42.77
2024-02-29T01:47:18.971Z,43.10
2024-02-29T01:47:50.764Z,43.87
2024-02-29T01:48:22.760Z,42.30
2024-02-29T01:48:55.895Z,42.63
2024-02-29T01:49:28.263Z,41.77
2024-02-29T01:50:05.029Z,43.30
2024-02-29T01:50:38.024Z,44.03
2024-02-29T01:51:13.974Z,43.60
2024-02-29T01:51:46.454Z,43.67
2024-02-29T01:52:19.668Z,44.33
2024-02-29T01:52:51.886Z,43.23
2024-02-29T01:53:23.726Z,42.93
2024-02-29T01:53:55.520Z,42.70
2024-02-29T01:54:27.549Z,43.27
2024-02-29T01:54:59.503Z,44.30
2024-02-29T01:55:31.606Z,43.53
2024-02-29T01:56:03.445Z,43.57
2024-02-29T01:56:35.271Z,42.63
2024-02-29T01:57:08.033Z,42.90
2024-02-29T01:57:41.121Z,42.60
2024-02-29T01:58:14.221Z,42.33
2024-02-29T01:58:46.388Z,42.20
2024-02-29T01:59:18.661Z,42.87
2024-02-29T01:59:51.169Z,43.43
2024-02-29T02:00:22.995Z,43.07
2024-02-29T02:00:55.001Z,43.07
2024-02-29T02:01:27.107Z,43.33
2024-02-29T02:01:59.138Z,42.60
2024-02-29T02:02:31.000Z,42.70
2024-02-29T02:03:02.831Z,43.33
2024-02-29T02:03:35.281Z,41.97
2024-02-29T02:04:07.146Z,42.03
2024-02-29T02:04:38.976Z,43.63
2024-02-29T02:05:10.871Z,43.93
2024-02-29T02:05:42.769Z,43.47
2024-02-29T02:06:14.922Z,42.57
2024-02-29T02:06:46.896Z,41.33
2024-02-29T02:07:18.728Z,42.90
2024-02-29T02:07:50.850Z,43.67
2024-02-29T02:08:24.972Z,43.43
2024-02-29T02:08:57.738Z,42.93
2024-02-29T02:09:30.174Z,42.90
2024-02-29T02:10:02.991Z,42.60
2024-02-29T02:10:34.931Z,41.93
2024-02-29T02:11:06.787Z,41.70
2024-02-29T02:11:39.425Z,41.73
2024-02-29T02:12:14.021Z,41.60
2024-02-29T02:12:48.726Z,41.97
2024-02-29T02:13:20.654Z,41.90
2024-02-29T02:13:52.645Z,42.77
2024-02-29T02:14:24.509Z,41.83
2024-02-29T02:14:56.339Z,41.90
2024-02-29T02:15:28.158Z,41.83
2024-02-29T02:16:00.067Z,42.40
2024-02-29T02:16:32.421Z,44.23
2024-02-29T02:17:04.353Z,44.63
2024-02-29T02:17:36.203Z,44.13
2024-02-29T02:18:08.067Z,43.13
2024-02-29T02:18:40.068Z,41.63
2024-02-29T02:19:13.595Z,43.53
2024-02-29T02:19:45.580Z,43.60
2024-02-29T02:20:19.022Z,42.17
2024-02-29T02:20:51.099Z,41.80
2024-02-29T02:21:23.016Z,42.63
2024-02-29T02:21:54.929Z,42.10
2024-02-29T02:22:28.157Z,43.30
2024-02-29T02:22:59.936Z,41.83
2024-02-29T02:23:31.986Z,42.93
2024-02-29T02:24:03.811Z,42.50
2024-02-29T02:24:37.626Z,42.33
2024-02-29T02:25:09.637Z,41.47
2024-02-29T02:25:41.480Z,41.03
2024-02-29T02:26:13.240Z,42.20
2024-02-29T02:26:45.010Z,42.27
2024-02-29T02:27:16.886Z,42.60
2024-02-29T02:27:48.704Z,42.87
2024-02-29T02:28:20.482Z,43.33
2024-02-29T02:28:52.279Z,41.53
2024-02-29T02:29:24.053Z,41.40
2024-02-29T02:29:56.344Z,41.73
2024-02-29T02:30:28.125Z,41.07
2024-02-29T02:31:00.005Z,41.80
2024-02-29T02:31:31.797Z,41.73
2024-02-29T02:32:03.684Z,43.13
2024-02-29T02:32:36.754Z,42.83
2024-02-29T02:33:08.920Z,42.17
2024-02-29T02:33:40.835Z,42.53
2024-02-29T02:34:12.755Z,42.47
2024-02-29T02:34:44.613Z,43.40
2024-02-29T02:35:16.400Z,43.40
2024-02-29T02:35:48.816Z,42.10
2024-02-29T02:36:20.650Z,42.43
2024-02-29T02:36:52.518Z,43.87
2024-02-29T02:37:24.337Z,42.43
2024-02-29T02:37:56.174Z,40.77
2024-02-29T02:38:28.006Z,42.07
2024-02-29T02:38:59.808Z,42.23
2024-02-29T02:39:31.751Z,41.80
2024-02-29T02:40:07.558Z,42.73
2024-02-29T02:40:39.343Z,42.10
2024-02-29T02:41:12.627Z,43.43
2024-02-29T02:41:47.777Z,42.07
2024-02-29T02:42:19.589Z,43.20
2024-02-29T02:42:51.551Z,42.90
2024-02-29T02:43:23.338Z,43.50
2024-02-29T02:43:55.177Z,43.07
2024-02-29T02:44:26.959Z,43.57
2024-02-29T02:44:58.818Z,41.73
2024-02-29T02:45:30.707Z,44.17
2024-02-29T02:46:02.619Z,42.47
2024-02-29T02:46:34.462Z,42.63
2024-02-29T02:47:06.306Z,42.17
2024-02-29T02:47:38.132Z,42.10
2024-02-29T02:48:10.000Z,42.30
2024-02-29T02:48:41.819Z,42.93
2024-02-29T02:49:15.177Z,41.53
2024-02-29T02:49:47.045Z,41.70
2024-02-29T02:50:19.044Z,42.73
2024-02-29T02:50:53.020Z,42.10
2024-02-29T02:51:28.314Z,43.00
2024-02-29T02:52:00.177Z,42.20
2024-02-29T02:52:32.115Z,41.83
2024-02-29T02:53:05.368Z,42.53
2024-02-29T02:53:37.171Z,41.80
2024-02-29T02:54:08.989Z,42.27
2024-02-29T02:54:41.004Z,41.90
2024-02-29T02:55:13.367Z,42.40
2024-02-29T02:55:45.215Z,41.83
2024-02-29T02:56:16.998Z,42.10
2024-02-29T02:56:48.910Z,42.73
2024-02-29T02:57:20.784Z,43.00
2024-02-29T02:57:52.639Z,40.63
2024-02-29T02:58:24.420Z,40.30
2024-02-29T02:58:56.180Z,41.20
2024-02-29T02:59:29.774Z,42.37
2024-02-29T03:00:01.665Z,41.27
2024-02-29T03:00:33.750Z,41.07
2024-02-29T03:01:05.612Z,40.37
2024-02-29T03:01:38.152Z,41.67
2024-02-29T03:02:10.072Z,42.37
2024-02-29T03:02:41.985Z,42.57
2024-02-29T03:03:13.800Z,40.90
2024-02-29T03:03:45.819Z,40.77
2024-02-29T03:04:17.867Z,41.70
2024-02-29T03:04:49.792Z,40.87
2024-02-29T03:05:22.168Z,42.27
2024-02-29T03:05:53.979Z,42.77
2024-02-29T03:06:25.753Z,41.60
2024-02-29T03:06:57.625Z,42.07
2024-02-29T03:07:29.545Z,41.90
2024-02-29T03:08:02.592Z,41.53
2024-02-29T03:08:34.428Z,40.70
2024-02-29T03:09:08.940Z,42.40
2024-02-29T03:09:40.921Z,42.33
2024-02-29T03:10:13.097Z,41.53
2024-02-29T03:10:44.948Z,40.43
2024-02-29T03:11:16.770Z,41.83
2024-02-29T03:11:48.588Z,41.43
2024-02-29T03:12:20.459Z,41.20
2024-02-29T03:12:52.337Z,40.50
2024-02-29T03:13:24.179Z,40.20
2024-02-29T03:13:56.114Z,41.43
2024-02-29T03:14:28.259Z,41.70
2024-02-29T03:15:00.033Z,40.70
2024-02-29T03:15:31.893Z,40.60
2024-02-29T03:16:03.795Z,40.87
2024-02-29T03:16:36.411Z,39.30
2024-02-29T03:17:08.177Z,39.83
2024-02-29T03:17:40.069Z,40.40
2024-02-29T03:18:12.324Z,40.10
2024-02-29T03:18:44.438Z,41.60
2024-02-29T03:19:16.299Z,39.97
2024-02-29T03:19:48.148Z,40.40
2024-02-29T03:20:19.931Z,41.03
2024-02-29T03:20:51.736Z,41.27
2024-02-29T03:21:23.538Z,42.53
2024-02-29T03:21:55.397Z,40.93
2024-02-29T03:22:27.398Z,40.83
2024-02-29T03:22:59.169Z,41.33
2024-02-29T03:23:30.981Z,40.50
2024-02-29T03:24:02.779Z,41.43
2024-02-29T03:24:40.221Z,40.47
2024-02-29T03:25:12.405Z,41.00
2024-02-29T03:25:44.289Z,40.87
2024-02-29T03:26:16.366Z,41.20
2024-02-29T03:26:48.445Z,40.87
2024-02-29T03:27:20.223Z,41.93
2024-02-29T03:27:52.976Z,40.37
2024-02-29T03:28:24.815Z,39.73
2024-02-29T03:28:56.588Z,40.27
2024-02-29T03:29:29.936Z,41.23
2024-02-29T03:30:01.928Z,41.53
2024-02-29T03:30:34.023Z,41.93
2024-02-29T03:31:11.142Z,41.70
2024-02-29T03:31:46.663Z,41.53
2024-02-29T03:32:21.499Z,39.97
2024-02-29T03:32:54.968Z,41.77
2024-02-29T03:33:26.834Z,41.10
2024-02-29T03:33:59.009Z,41.17
2024-02-29T03:34:30.995Z,40.77
2024-02-29T03:35:05.286Z,40.67
2024-02-29T03:35:37.104Z,40.70
2024-02-29T03:36:09.850Z,39.77
2024-02-29T03:36:41.726Z,39.93
2024-02-29T03:37:14.877Z,40.20
2024-02-29T03:37:47.456Z,41.10
2024-02-29T03:38:19.471Z,41.00
2024-02-29T03:38:51.268Z,40.57
2024-02-29T03:39:23.039Z,41.23
2024-02-29T03:39:55.930Z,40.90
2024-02-29T03:40:27.851Z,39.53
2024-02-29T03:40:59.865Z,41.33
2024-02-29T03:41:32.393Z,40.83
2024-02-29T03:42:04.204Z,40.33
2024-02-29T03:42:36.033Z,41.97
2024-02-29T03:43:07.922Z,41.20
2024-02-29T03:43:39.773Z,40.50
2024-02-29T03:44:11.608Z,42.13
2024-02-29T03:44:45.077Z,42.27
2024-02-29T03:45:16.953Z,41.67
2024-02-29T03:45:48.767Z,42.27
2024-02-29T03:46:20.597Z,42.23
2024-02-29T03:46:52.569Z,40.37
2024-02-29T03:47:24.636Z,40.30
2024-02-29T03:47:56.683Z,41.33
2024-02-29T03:48:29.780Z,41.20
2024-02-29T03:49:01.748Z,43.03
2024-02-29T03:49:33.591Z,41.23
2024-02-29T03:50:06.144Z,40.90
2024-02-29T03:50:37.916Z,41.60
2024-02-29T03:51:09.799Z,42.40
2024-02-29T03:51:41.644Z,41.57
2024-02-29T03:52:13.540Z,41.93
2024-02-29T03:52:45.410Z,41.57
2024-02-29T03:53:17.200Z,41.33
2024-02-29T03:53:49.110Z,41.40
2024-02-29T03:54:20.926Z,41.17
2024-02-29T03:54:52.834Z,42.43
2024-02-29T03:55:24.776Z,41.90
2024-02-29T03:55:56.590Z,40.80
2024-02-29T03:56:28.381Z,42.00
2024-02-29T03:57:00.215Z,41.93
2024-02-29T03:57:32.035Z,42.93
2024-02-29T03:58:04.370Z,42.17
2024-02-29T03:58:36.185Z,41.20
2024-02-29T03:59:08.005Z,40.87
2024-02-29T03:59:39.813Z,41.83
2024-02-29T04:00:14.765Z,41.87
2024-02-29T04:00:46.908Z,41.83
2024-02-29T04:01:19.304Z,41.57
2024-02-29T04:01:51.944Z,40.50
2024-02-29T04:02:23.918Z,41.97
2024-02-29T04:02:55.780Z,43.30
2024-02-29T04:03:27.551Z,42.23
2024-02-29T04:03:59.412Z,42.10
2024-02-29T04:04:31.244Z,42.47
2024-02-29T04:05:03.072Z,42.40
2024-02-29T04:05:34.881Z,42.67
2024-02-29T04:06:09.664Z,43.57
2024-02-29T04:06:41.527Z,42.43
2024-02-29T04:07:13.463Z,43.53
2024-02-29T04:07:45.378Z,43.80
2024-02-29T04:08:17.220Z,43.27
2024-02-29T04:08:49.040Z,43.97
2024-02-29T04:09:20.957Z,42.33
2024-02-29T04:09:55.986Z,43.03
2024-02-29T04:10:31.453Z,44.00
2024-02-29T04:11:03.624Z,43.27
2024-02-29T04:11:35.478Z,41.67
2024-02-29T04:12:07.595Z,41.97
2024-02-29T04:12:39.434Z,41.83
2024-02-29T04:13:11.254Z,42.53
2024-02-29T04:13:43.092Z,42.90
2024-02-29T04:14:14.900Z,43.50
2024-02-29T04:14:46.725Z,44.63
2024-02-29T04:15:18.574Z,44.60
2024-02-29T04:15:50.547Z,42.70
2024-02-29T04:16:23.316Z,43.40
2024-02-29T04:16:55.344Z,43.47
2024-02-29T04:17:27.174Z,42.33
2024-02-29T04:18:00.095Z,42.97
2024-02-29T04:18:32.093Z,43.13
2024-02-29T04:19:04.993Z,42.87
2024-02-29T04:19:39.163Z,43.10
2024-02-29T04:20:11.418Z,42.20
2024-02-29T04:20:43.429Z,40.67
2024-02-29T04:21:15.213Z,41.10
2024-02-29T04:21:47.698Z,42.50
2024-02-29T04:22:19.755Z,41.40
2024-02-29T04:22:51.606Z,40.70
2024-02-29T04:23:23.388Z,42.00
2024-02-29T04:23:55.226Z,42.47
2024-02-29T04:24:27.387Z,42.10
2024-02-29T04:24:59.276Z,42.13
2024-02-29T04:25:31.124Z,42.20
2024-02-29T04:26:03.477Z,40.93
2024-02-29T04:26:35.252Z,42.00
2024-02-29T04:27:07.187Z,41.83
2024-02-29T04:27:39.386Z,41.97
2024-02-29T04:28:11.210Z,41.63
2024-02-29T04:28:43.066Z,43.67
2024-02-29T04:29:14.850Z,41.70
2024-02-29T04:29:49.530Z,42.57
2024-02-29T04:30:21.319Z,42.47
2024-02-29T04:30:53.206Z,43.80
2024-02-29T04:31:25.089Z,42.50
2024-02-29T04:31:56.903Z,42.47
2024-02-29T04:32:28.673Z,42.03
2024-02-29T04:33:01.507Z,43.23
2024-02-29T04:33:33.636Z,43.37
2024-02-29T04:34:05.472Z,43.10
2024-02-29T04:34:37.255Z,42.60
2024-02-29T04:35:10.555Z,42.13
2024-02-29T04:35:42.388Z,42.10
2024-02-29T04:36:14.168Z,43.27
2024-02-29T04:36:45.985Z,43.57
2024-02-29T04:37:17.991Z,42.90
2024-02-29T04:37:49.803Z,41.33
2024-02-29T04:38:21.568Z,42.00
2024-02-29T04:38:53.357Z,42.67
2024-02-29T04:39:25.234Z,42.17
2024-02-29T04:39:57.076Z,40.87
2024-02-29T04:40:30.484Z,41.27
2024-02-29T04:41:02.402Z,41.00
2024-02-29T04:41:34.227Z,42.03
2024-02-29T04:42:06.064Z,42.20
2024-02-29T04:42:38.209Z,42.13
2024-02-29T04:43:10.542Z,42.13
2024-02-29T04:43:42.361Z,42.17
2024-02-29T04:44:14.258Z,41.50
2024-02-29T04:44:46.097Z,42.63
2024-02-29T04:45:17.893Z,41.03
2024-02-29T04:45:49.807Z,42.77
2024-02-29T04:46:21.640Z,42.53
2024-02-29T04:46:53.463Z,41.87
2024-02-29T04:47:26.102Z,41.37
2024-02-29T04:47:58.595Z,40.73
2024-02-29T04:48:30.433Z,41.67
2024-02-29T04:49:02.276Z,39.67
2024-02-29T04:49:34.829Z,40.90
2024-02-29T04:50:06.837Z,42.07
2024-02-29T04:50:38.634Z,41.33
2024-02-29T04:51:10.736Z,42.50
2024-02-29T04:51:42.624Z,40.60
2024-02-29T04:52:14.776Z,41.10
2024-02-29T04:52:46.794Z,42.00
2024-02-29T04:53:18.842Z,41.93
2024-02-29T04:53:50.634Z,41.67
2024-02-29T04:54:22.416Z,41.07
2024-02-29T04:54:54.347Z,40.67
2024-02-29T04:55:26.130Z,40.97
2024-02-29T04:55:58.268Z,40.73
2024-02-29T04:56:30.069Z,40.70
2024-02-29T04:57:01.961Z,41.67
2024-02-29T04:57:33.817Z,40.40
2024-02-29T04:58:05.734Z,41.93
2024-02-29T04:58:37.641Z,40.90
2024-02-29T04:59:10.367Z,41.63
2024-02-29T04:59:42.259Z,41.67
2024-02-29T05:00:14.382Z,41.20
2024-02-29T05:00:46.326Z,40.83
2024-02-29T05:01:18.447Z,40.47
2024-02-29T05:01:51.485Z,41.47
2024-02-29T05:02:24.131Z,41.53
2024-02-29T05:02:56.281Z,40.87
2024-02-29T05:03:28.094Z,40.97
2024-02-29T05:03:59.944Z,40.67
2024-02-29T05:04:32.197Z,40.53
2024-02-29T05:05:05.124Z,40.93
2024-02-29T05:05:36.911Z,39.63
2024-02-29T05:06:14.870Z,39.47
2024-02-29T05:06:46.794Z,39.33
2024-02-29T05:07:18.760Z,39.37
2024-02-29T05:07:50.592Z,40.43
2024-02-29T05:08:23.194Z,40.47
2024-02-29T05:08:55.084Z,39.80
2024-02-29T05:09:27.069Z,40.40
2024-02-29T05:09:58.925Z,39.77
2024-02-29T05:10:30.829Z,39.43
2024-02-29T05:11:02.636Z,39.97
2024-02-29T05:11:36.696Z,41.63
2024-02-29T05:12:09.785Z,40.40
2024-02-29T05:12:41.608Z,39.17
2024-02-29T05:13:13.459Z,39.63
2024-02-29T05:13:45.326Z,38.50
2024-02-29T05:14:17.134Z,39.07
2024-02-29T05:14:48.947Z,39.90
2024-02-29T05:15:21.990Z,39.90
2024-02-29T05:15:53.880Z,40.70
2024-02-29T05:16:25.740Z,40.67
2024-02-29T05:16:57.555Z,39.57
2024-02-29T05:17:29.666Z,39.40
2024-02-29T05:18:01.684Z,39.53
2024-02-29T05:18:33.701Z,39.43
2024-02-29T05:19:05.586Z,39.73
2024-02-29T05:19:38.997Z,39.47
2024-02-29T05:20:11.545Z,39.83
2024-02-29T05:20:43.322Z,40.43
2024-02-29T05:21:15.220Z,40.03
2024-02-29T05:21:48.246Z,40.00
2024-02-29T05:22:21.061Z,39.83
2024-02-29T05:22:55.007Z,39.90
2024-02-29T05:23:26.892Z,39.40
2024-02-29T05:23:58.804Z,39.63
2024-02-29T05:24:31.101Z,40.57
2024-02-29T05:25:03.076Z,39.43
2024-02-29T05:25:36.721Z,38.97
2024-02-29T05:26:09.173Z,39.03
2024-02-29T05:26:41.052Z,39.63
2024-02-29T05:27:12.836Z,40.30
2024-02-29T05:27:44.725Z,39.37
2024-02-29T05:28:19.260Z,38.50
2024-02-29T05:28:51.188Z,40.23
2024-02-29T05:29:23.018Z,40.10
2024-02-29T05:29:54.789Z,40.00
2024-02-29T05:30:26.958Z,39.93
2024-02-29T05:30:59.347Z,41.53
2024-02-29T05:31:31.795Z,39.73
2024-02-29T05:32:03.636Z,39.90
2024-02-29T05:32:35.562Z,40.43
2024-02-29T05:33:07.493Z,39.57
2024-02-29T05:33:41.964Z,40.27
2024-02-29T05:34:15.302Z,41.23
2024-02-29T05:34:47.654Z,41.80
2024-02-29T05:35:19.455Z,40.00
2024-02-29T05:35:52.535Z,39.77
2024-02-29T05:36:24.377Z,40.07
2024-02-29T05:36:56.179Z,40.00
2024-02-29T05:37:28.338Z,40.93
2024-02-29T05:38:00.386Z,40.00
2024-02-29T05:38:32.346Z,40.03
2024-02-29T05:39:04.192Z,40.50
2024-02-29T05:39:36.218Z,39.63
2024-02-29T05:40:08.721Z,38.87
2024-02-29T05:40:40.732Z,38.87
2024-02-29T05:41:12.568Z,40.10
2024-02-29T05:41:44.523Z,39.80
2024-02-29T05:42:16.319Z,40.60
2024-02-29T05:42:48.136Z,39.73
2024-02-29T05:43:20.048Z,39.70
2024-02-29T05:43:51.905Z,40.13
2024-02-29T05:44:23.720Z,40.90
2024-02-29T05:44:55.531Z,40.43
2024-02-29T05:45:27.353Z,40.47
2024-02-29T05:45:59.285Z,40.33
2024-02-29T05:46:31.141Z,39.33
2024-02-29T05:47:03.343Z,38.93
2024-02-29T05:47:35.432Z,39.53
2024-02-29T05:48:07.660Z,39.77
2024-02-29T05:48:40.497Z,39.10
2024-02-29T05:49:12.515Z,39.10
2024-02-29T05:49:44.395Z,39.83
2024-02-29T05:50:16.201Z,39.53
2024-02-29T05:50:48.049Z,39.63
2024-02-29T05:51:20.070Z,39.40
2024-02-29T05:51:51.886Z,38.60
2024-02-29T05:52:23.788Z,39.67
2024-02-29T05:52:55.621Z,39.40
2024-02-29T05:53:27.644Z,39.40
2024-02-29T05:53:59.479Z,39.87
2024-02-29T05:54:31.404Z,39.20
2024-02-29T05:55:09.477Z,38.13
2024-02-29T05:55:41.676Z,39.07
2024-02-29T05:56:14.847Z,38.70
2024-02-29T05:56:46.783Z,39.00
2024-02-29T05:57:18.568Z,38.87
2024-02-29T05:57:50.344Z,39.57
2024-02-29T05:58:22.286Z,38.90
2024-02-29T05:58:54.143Z,38.13
2024-02-29T05:59:26.270Z,38.23
2024-02-29T05:59:58.213Z,39.47
2024-02-29T06:00:30.500Z,38.63
2024-02-29T06:01:03.184Z,38.60
2024-02-29T06:01:35.270Z,39.03
2024-02-29T06:02:07.274Z,40.10
2024-02-29T06:02:39.735Z,39.17
2024-02-29T06:03:11.589Z,38.47
2024-02-29T06:03:43.516Z,38.60
2024-02-29T06:04:15.364Z,38.67
2024-02-29T06:04:47.183Z,38.53
2024-02-29T06:05:20.081Z,38.83
2024-02-29T06:05:51.867Z,37.73
2024-02-29T06:06:23.646Z,39.37
2024-02-29T06:06:55.459Z,39.67
2024-02-29T06:07:27.764Z,38.90
2024-02-29T06:07:59.548Z,38.60
2024-02-29T06:08:31.628Z,39.00
2024-02-29T06:09:04.632Z,38.70
2024-02-29T06:09:36.544Z,39.10
2024-02-29T06:10:11.668Z,38.80
2024-02-29T06:10:44.017Z,40.47
2024-02-29T06:11:16.003Z,39.77
2024-02-29T06:11:49.045Z,39.50
2024-02-29T06:12:20.904Z,38.77
2024-02-29T06:12:52.779Z,39.80
2024-02-29T06:13:24.610Z,40.97
2024-02-29T06:13:57.517Z,39.27
2024-02-29T06:14:29.441Z,40.13
2024-02-29T06:15:01.337Z,31.03
2024-02-29T06:15:33.471Z,29.10
2024-02-29T06:16:05.480Z,32.30
2024-02-29T06:16:37.251Z,35.87
2024-02-29T06:17:09.524Z,37.53
2024-02-29T06:17:41.477Z,40.47
2024-02-29T06:18:14.628Z,39.73
2024-02-29T06:18:47.924Z,39.57
2024-02-29T06:19:19.899Z,39.20
2024-02-29T06:19:51.733Z,39.13
2024-02-29T06:20:23.866Z,37.83
2024-02-29T06:20:55.650Z,38.43
2024-02-29T06:21:27.476Z,39.70
2024-02-29T06:21:59.332Z,39.10
2024-02-29T06:22:31.124Z,38.37
2024-02-29T06:23:02.960Z,38.30
2024-02-29T06:23:34.780Z,38.57
2024-02-29T06:24:06.658Z,39.30
2024-02-29T06:24:38.527Z,40.60
2024-02-29T06:25:11.618Z,39.63
2024-02-29T06:25:44.373Z,39.23
2024-02-29T06:26:16.353Z,38.30
2024-02-29T06:26:48.518Z,38.33
2024-02-29T06:27:23.845Z,38.80
2024-02-29T06:27:55.759Z,39.13
2024-02-29T06:28:28.301Z,39.53
2024-02-29T06:29:00.271Z,38.37
2024-02-29T06:29:32.097Z,37.57
2024-02-29T06:30:05.389Z,37.93
2024-02-29T06:30:37.268Z,36.77
2024-02-29T06:31:10.082Z,38.60
2024-02-29T06:31:45.594Z,37.97
2024-02-29T06:32:17.357Z,37.73
2024-02-29T06:32:49.171Z,37.97
2024-02-29T06:33:20.986Z,37.77
2024-02-29T06:33:52.836Z,36.07
2024-02-29T06:34:24.891Z,37.53
2024-02-29T06:34:56.826Z,38.07
2024-02-29T06:35:29.641Z,37.00
2024-02-29T06:36:07.468Z,35.97
2024-02-29T06:36:41.280Z,37.93
2024-02-29T06:37:13.268Z,38.83
2024-02-29T06:37:45.291Z,38.77
2024-02-29T06:38:18.090Z,37.27
2024-02-29T06:38:50.162Z,37.10
2024-02-29T06:39:21.924Z,37.93
2024-02-29T06:39:58.272Z,37.83
2024-02-29T06:40:30.101Z,38.67
2024-02-29T06:41:01.966Z,38.50
2024-02-29T06:41:33.876Z,38.37
2024-02-29T06:42:06.181Z,38.90
2024-02-29T06:42:38.773Z,39.47
2024-02-29T06:43:10.632Z,39.20
2024-02-29T06:43:42.493Z,39.33
2024-02-29T06:44:15.050Z,38.10
2024-02-29T06:44:46.888Z,37.73
2024-02-29T06:45:18.678Z,38.27
2024-02-29T06:45:51.549Z,40.30
2024-02-29T06:46:23.416Z,41.83
2024-02-29T06:46:55.259Z,41.37
2024-02-29T06:47:27.194Z,41.97
2024-02-29T06:47:59.372Z,42.03
2024-02-29T06:48:31.216Z,42.07
2024-02-29T06:49:03.966Z,42.23
2024-02-29T06:49:35.802Z,41.17
2024-02-29T06:50:08.292Z,41.03
2024-02-29T06:50:40.074Z,41.43
2024-02-29T06:51:11.869Z,42.87
2024-02-29T06:51:43.775Z,43.13
2024-02-29T06:52:16.076Z,42.07
2024-02-29T06:52:48.559Z,42.13
2024-02-29T06:53:21.059Z,42.60
2024-02-29T06:53:52.843Z,40.43
2024-02-29T06:54:25.030Z,40.27
2024-02-29T06:54:56.901Z,39.20
2024-02-29T06:55:28.922Z,40.83
2024-02-29T06:56:00.838Z,42.53